world map with ASP marked

ASP - Airport

This information may not be accurate or current and is not valid for navigation or flight planning. No warranty of fitness for any purpose is made or implied.

flag of Northern Territoryflag of Australia

Donate via PayPal

Additional information is available on the NEW Great Circle Mapper

Location
City:  Alice Springs, Northern Territory, Australia
ICAO / IATA:YBAS / ASP

Details
Type:Airport (Aerodrome, Airfield)
Use:Public/Civil
Latitude:23°48'24"S (-23.806666)
Longitude:133°54'08"E (133.902222)
Datum:WGS 1984
Elevation:1789 ft (545 m)
Runways:2
Longest:7999 × 148 ft (2438 × 45 m)

Time
Timezone:UTC+9:30 (DST+11:30)
Local Time:

Weather
METAR:YBAS  190704Z AUTO 10006KT 040V180 9999 // SCT115 41/09 Q1005
TAF:YBAS  182306Z 1900/1924 31008KT CAVOK= TAF YPAD 182308Z 1900/2006 14010KT 9999 SCT025
FM190300 14015KT CAVOK
FM191600 10012KT CAVOK
FM192300 06010KT CAVOK
FM200300 23012KT CAVOK

Related Locations
Nearby:
Farthest:TAPT: 11345 mi / 18257 km
Barbuda [Coco Point Lodge], AG

Find:

   beyond  
but within

Other Information
Maps:
Sources:

  

Airport Diagram

Airport diagram for ASP

Airport diagram (OBSOLETE) from NGA

 


Great Circle Mapper   Great Circle Mapper
Great Circle Mapper FAQ   Great Circle Mapper FAQ
  Karl's Home Page
KLSē   KLSē Home
   GC on Facebook
Airlines of the World   Airlines of the World
Donate via PayPal


Copyright © 2004-2017, Karl L. Swartz. All rights reserved.
All trademarks mentioned herein belong to their respective owners.

Please see credits for attribution and copyright information.

Karl Swartz <karl@kls2.com>
  Powered by FreeBSD
Valid HTML 4.01!
Labeled with ICRA
hCard Microformat
Geo Microformat